KMCC/MCC METAR and TAF weather

Enter ICAO airport designator
Station Type Date Time Source
KMCC METAR 2020/01/18 15:35 UTC NOAA

KMCC 181535Z AUTO 00000KT M1/4SM FG OVC002 04/04 A3038 RMK AO2


Station Type Date Time Source
KMCC Decoded METAR 2020/01/18 15:35 UTC NOAA

Sacramento, McClellan Airfield Airport, CA, United States (KMCC) 38-40N 121-24W
Jan 18, 2020 - 10:35 AM EST / 2020.01.18 1535 UTC
Wind: Calm:0
Visibility: less than 1/4 mile(s):1
Sky conditions: overcast
Weather: fog
Temperature: 39 F (4 C)
Dew Point: 39 F (4 C)
Relative Humidity: 100%
Pressure (altimeter): 30.38 in. Hg (1028 hPa)
ob: KMCC 181535Z AUTO 00000KT M1/4SM FG OVC002 04/04 A3038 RMK AO2
cycle: 15

Station Type Date Time Source
KMCC TAF 2020/01/18 12:30 UTC NOAA

TAF KMCC 181127Z 1812/1912 VRB04KT 6SM BR SCT010
FM181300 VRB03KT 1/2SM FG OVC002
TEMPO 1817/1821 2SM BR OVC008
FM182100 32005KT 5SM HZ SCT008 OVC150
FM190000 33004KT P6SM BKN250

Example: see airport list